createdAt,value
2022-11-17T00:00:58.928Z,21.19
2022-11-17T00:03:25.687Z,21.74
2022-11-17T00:05:52.440Z,21.75
2022-11-17T00:08:19.197Z,21.95
2022-11-17T00:10:45.975Z,22.19
2022-11-17T00:13:31.731Z,21.97
2022-11-17T00:15:58.742Z,22.13
2022-11-17T00:18:45.168Z,22.41
2022-11-17T00:21:21.460Z,22.36
2022-11-17T00:23:49.561Z,21.16
2022-11-17T00:26:16.374Z,17.61
2022-11-17T00:28:43.110Z,16.94
2022-11-17T00:31:28.659Z,19.06
2022-11-17T00:34:07.611Z,20.43
2022-11-17T00:36:34.408Z,20.78
2022-11-17T00:39:01.173Z,21.40
2022-11-17T00:41:28.688Z,21.63
2022-11-17T00:43:55.485Z,21.64
2022-11-17T00:46:22.612Z,21.90
2022-11-17T00:48:49.548Z,21.96
2022-11-17T00:51:16.342Z,22.01
2022-11-17T00:53:43.089Z,22.20
2022-11-17T00:56:09.944Z,22.19
2022-11-17T00:58:36.791Z,22.19
2022-11-17T01:01:03.856Z,22.37
2022-11-17T01:03:30.627Z,22.21
2022-11-17T01:05:57.411Z,18.98
2022-11-17T01:08:24.168Z,17.27
2022-11-17T01:10:50.957Z,18.46
2022-11-17T01:13:17.732Z,20.17
2022-11-17T01:15:44.502Z,20.85
2022-11-17T01:18:11.255Z,21.36
2022-11-17T01:20:38.225Z,21.46
2022-11-17T01:23:04.987Z,21.86
2022-11-17T01:25:31.925Z,22.06
2022-11-17T01:27:58.693Z,22.13
2022-11-17T01:30:25.479Z,22.07
2022-11-17T01:32:52.312Z,22.33
2022-11-17T01:35:19.107Z,22.21
2022-11-17T01:37:45.889Z,22.39
2022-11-17T01:40:13.248Z,22.29
2022-11-17T01:42:40.075Z,20.91
2022-11-17T01:45:06.864Z,17.89
2022-11-17T01:47:33.704Z,18.18
2022-11-17T01:50:00.470Z,19.87
2022-11-17T01:52:27.220Z,20.29
2022-11-17T01:54:54.105Z,21.15
2022-11-17T01:57:20.878Z,21.58
2022-11-17T01:59:47.620Z,21.68
2022-11-17T02:02:14.362Z,21.92
2022-11-17T02:04:41.129Z,21.98
2022-11-17T02:07:07.941Z,22.03
2022-11-17T02:09:34.728Z,21.89
2022-11-17T02:12:01.504Z,22.38
2022-11-17T02:14:28.258Z,22.48
2022-11-17T02:16:54.996Z,22.39
2022-11-17T02:19:21.856Z,19.73
2022-11-17T02:21:48.716Z,17.61
2022-11-17T02:24:15.467Z,18.69
2022-11-17T02:26:42.229Z,20.31
2022-11-17T02:29:08.979Z,21.07
2022-11-17T02:31:35.724Z,21.38
2022-11-17T02:34:02.550Z,21.48
2022-11-17T02:36:29.303Z,21.79
2022-11-17T02:38:56.161Z,22.03
2022-11-17T02:41:23.022Z,22.11
2022-11-17T02:44:05.221Z,22.30
2022-11-17T02:46:31.998Z,22.40
2022-11-17T02:48:58.738Z,22.36
2022-11-17T02:51:25.555Z,22.38
2022-11-17T02:53:52.337Z,18.68
2022-11-17T02:56:19.088Z,17.55
2022-11-17T02:58:45.829Z,19.15
2022-11-17T03:01:12.626Z,20.56
2022-11-17T03:03:39.384Z,21.32
2022-11-17T03:06:06.126Z,21.35
2022-11-17T03:08:33.407Z,21.79
2022-11-17T03:11:00.716Z,21.98
2022-11-17T03:13:27.467Z,21.88
2022-11-17T03:15:54.876Z,21.92
2022-11-17T03:18:21.652Z,22.47
2022-11-17T03:20:48.403Z,22.37
2022-11-17T03:23:15.192Z,22.22
2022-11-17T03:25:42.000Z,22.28
2022-11-17T03:28:08.752Z,18.99
2022-11-17T03:30:37.621Z,17.55
2022-11-17T03:33:05.181Z,18.96
2022-11-17T03:35:31.956Z,20.35
2022-11-17T03:37:58.708Z,21.16
2022-11-17T03:40:25.469Z,21.45
2022-11-17T03:42:53.804Z,21.76
2022-11-17T03:45:20.586Z,22.03
2022-11-17T03:47:47.351Z,22.19
2022-11-17T03:50:14.159Z,21.88
2022-11-17T03:52:40.924Z,22.06
2022-11-17T03:55:07.683Z,22.05
2022-11-17T03:57:34.429Z,22.39
2022-11-17T04:00:01.354Z,22.41
2022-11-17T04:02:28.097Z,19.98
2022-11-17T04:05:06.891Z,18.13
2022-11-17T04:07:33.700Z,18.51
2022-11-17T04:10:00.495Z,19.72
2022-11-17T04:12:46.098Z,20.67
2022-11-17T04:15:31.436Z,21.35
2022-11-17T04:17:58.381Z,21.83
2022-11-17T04:20:25.162Z,21.73
2022-11-17T04:23:07.296Z,22.04
2022-11-17T04:25:52.629Z,22.15
2022-11-17T04:28:37.436Z,22.15
2022-11-17T04:31:04.215Z,22.18
2022-11-17T04:33:30.968Z,22.35
2022-11-17T04:35:57.728Z,22.08
2022-11-17T04:38:24.471Z,18.25
2022-11-17T04:41:10.158Z,18.21
2022-11-17T04:43:37.201Z,20.02
2022-11-17T04:46:04.083Z,19.92
2022-11-17T04:48:30.854Z,21.06
2022-11-17T04:50:57.627Z,21.61
2022-11-17T04:53:24.385Z,21.62
2022-11-17T04:55:51.226Z,21.98
2022-11-17T04:58:17.976Z,21.90
2022-11-17T05:00:44.776Z,22.27
2022-11-17T05:03:11.561Z,22.18
2022-11-17T05:05:38.302Z,22.18
2022-11-17T05:08:05.052Z,22.18
2022-11-17T05:10:50.600Z,22.08
2022-11-17T05:13:25.134Z,18.37
2022-11-17T05:16:10.471Z,18.42
2022-11-17T05:18:37.215Z,19.76
2022-11-17T05:21:03.964Z,20.40
2022-11-17T05:23:49.324Z,21.27
2022-11-17T05:26:16.098Z,21.68
2022-11-17T05:28:42.915Z,21.69
2022-11-17T05:31:09.693Z,21.71
2022-11-17T05:33:38.096Z,21.98
2022-11-17T05:36:05.008Z,22.20
2022-11-17T05:38:31.771Z,22.12
2022-11-17T05:40:58.557Z,22.36
2022-11-17T05:43:25.348Z,22.13
2022-11-17T05:45:52.120Z,21.86
2022-11-17T05:48:18.884Z,18.26
2022-11-17T05:50:45.628Z,18.23
2022-11-17T05:53:12.387Z,19.81
2022-11-17T05:55:39.132Z,19.49
2022-11-17T05:58:05.867Z,20.85
2022-11-17T06:00:32.617Z,21.45
2022-11-17T06:02:59.376Z,21.92
2022-11-17T06:05:26.252Z,21.72
2022-11-17T06:07:58.072Z,21.91
2022-11-17T06:10:24.832Z,21.81
2022-11-17T06:12:51.623Z,22.27
2022-11-17T06:15:18.429Z,22.25
2022-11-17T06:17:45.214Z,22.51
2022-11-17T06:20:11.956Z,22.28
2022-11-17T06:22:40.154Z,20.18
2022-11-17T06:25:08.625Z,18.01
2022-11-17T06:27:35.371Z,18.66
2022-11-17T06:30:03.653Z,19.31
2022-11-17T06:32:30.540Z,20.21
2022-11-17T06:34:57.448Z,21.06
2022-11-17T06:37:24.747Z,21.59
2022-11-17T06:39:51.524Z,21.59
2022-11-17T06:42:18.286Z,21.92
2022-11-17T06:44:45.045Z,21.97
2022-11-17T06:47:11.783Z,22.21
2022-11-17T06:49:38.534Z,22.25
2022-11-17T06:52:05.363Z,22.29
2022-11-17T06:54:32.143Z,22.32
2022-11-17T06:56:58.987Z,22.40
2022-11-17T06:59:25.920Z,19.10
2022-11-17T07:01:52.796Z,18.20
2022-11-17T07:04:19.602Z,19.43
2022-11-17T07:06:46.368Z,19.60
2022-11-17T07:09:13.100Z,20.44
2022-11-17T07:11:39.844Z,21.43
2022-11-17T07:14:06.574Z,21.45
2022-11-17T07:16:33.391Z,21.68
2022-11-17T07:19:03.209Z,22.03
2022-11-17T07:21:29.987Z,22.13
2022-11-17T07:23:56.753Z,22.11
2022-11-17T07:26:23.485Z,22.37
2022-11-17T07:28:50.216Z,22.27
2022-11-17T07:31:16.954Z,22.46
2022-11-17T07:33:43.702Z,22.35
2022-11-17T07:36:10.942Z,18.73
2022-11-17T07:38:38.257Z,17.92
2022-11-17T07:41:05.348Z,19.32
2022-11-17T07:43:32.275Z,19.45
2022-11-17T07:45:59.129Z,20.31
2022-11-17T07:48:25.872Z,21.25
2022-11-17T07:50:52.684Z,21.61
2022-11-17T07:53:19.506Z,21.60
2022-11-17T07:55:46.281Z,21.59
2022-11-17T07:58:13.032Z,21.51
2022-11-17T08:00:39.782Z,21.48
2022-11-17T08:03:06.582Z,21.63
2022-11-17T08:05:37.082Z,21.75
2022-11-17T08:08:09.906Z,21.71
2022-11-17T08:10:36.878Z,21.78
2022-11-17T08:13:03.690Z,19.46
2022-11-17T08:15:30.478Z,18.46
2022-11-17T08:17:57.222Z,18.94
2022-11-17T08:20:24.121Z,19.53
2022-11-17T08:22:51.191Z,20.55
2022-11-17T08:25:17.960Z,20.96
2022-11-17T08:27:44.796Z,21.21
2022-11-17T08:30:11.561Z,21.15
2022-11-17T08:32:38.304Z,21.34
2022-11-17T08:35:06.785Z,21.49
2022-11-17T08:37:33.513Z,21.49
2022-11-17T08:40:00.272Z,21.63
2022-11-17T08:42:27.101Z,21.82
2022-11-17T08:44:53.838Z,21.91
2022-11-17T08:47:20.621Z,21.75
2022-11-17T08:49:47.375Z,18.82
2022-11-17T08:52:14.111Z,18.33
2022-11-17T08:54:40.918Z,19.06
2022-11-17T08:57:07.694Z,19.87
2022-11-17T08:59:34.463Z,20.76
2022-11-17T09:02:01.291Z,20.93
2022-11-17T09:04:28.017Z,21.27
2022-11-17T09:06:54.782Z,21.20
2022-11-17T09:09:21.700Z,21.31
2022-11-17T09:11:48.694Z,21.49
2022-11-17T09:14:15.429Z,21.52
2022-11-17T09:16:42.165Z,21.64
2022-11-17T09:19:08.911Z,21.73
2022-11-17T09:21:35.639Z,21.80
2022-11-17T09:24:02.405Z,19.25
2022-11-17T09:26:29.213Z,18.11
2022-11-17T09:28:55.972Z,19.60
2022-11-17T09:31:23.345Z,20.54
2022-11-17T09:33:50.288Z,20.89
2022-11-17T09:36:17.255Z,21.14
2022-11-17T09:38:44.286Z,21.18
2022-11-17T09:41:11.065Z,21.44
2022-11-17T09:43:38.865Z,21.50
2022-11-17T09:46:07.723Z,21.60
2022-11-17T09:48:43.608Z,21.65
2022-11-17T09:51:10.391Z,21.84
2022-11-17T09:53:37.790Z,21.89
2022-11-17T09:56:04.740Z,19.84
2022-11-17T09:58:31.527Z,18.26
2022-11-17T10:00:58.288Z,18.97
2022-11-17T10:03:25.021Z,19.62
2022-11-17T10:05:51.757Z,20.35
2022-11-17T10:08:18.482Z,20.82
2022-11-17T10:10:45.222Z,21.12
2022-11-17T10:13:11.971Z,21.17
2022-11-17T10:15:38.926Z,21.37
2022-11-17T10:18:05.648Z,21.47
2022-11-17T10:20:32.392Z,21.58
2022-11-17T10:22:59.286Z,21.66
2022-11-17T10:25:26.013Z,21.71
2022-11-17T10:27:53.164Z,21.81
2022-11-17T10:30:20.015Z,21.79
2022-11-17T10:32:48.244Z,18.77
2022-11-17T10:35:15.308Z,18.53
2022-11-17T10:37:42.148Z,19.82
2022-11-17T10:40:09.009Z,19.86
2022-11-17T10:42:35.829Z,20.39
2022-11-17T10:45:02.635Z,21.09
2022-11-17T10:47:29.413Z,21.13
2022-11-17T10:49:56.189Z,21.36
2022-11-17T10:52:22.927Z,21.36
2022-11-17T10:54:49.709Z,21.58
2022-11-17T10:57:16.487Z,21.65
2022-11-17T10:59:43.220Z,21.78
2022-11-17T11:02:09.945Z,21.73
2022-11-17T11:04:36.696Z,21.72
2022-11-17T11:07:03.481Z,18.93
2022-11-17T11:09:30.210Z,18.42
2022-11-17T11:11:59.911Z,19.49
2022-11-17T11:14:26.708Z,19.62
2022-11-17T11:16:53.444Z,20.46
2022-11-17T11:19:20.192Z,20.96
2022-11-17T11:21:46.924Z,21.24
2022-11-17T11:24:13.686Z,21.24
2022-11-17T11:26:40.449Z,21.28
2022-11-17T11:29:07.276Z,21.59
2022-11-17T11:31:34.244Z,21.74
2022-11-17T11:34:01.330Z,21.70
2022-11-17T11:36:28.073Z,21.66
2022-11-17T11:38:54.926Z,21.54
2022-11-17T11:41:21.728Z,18.66
2022-11-17T11:43:48.460Z,18.31
2022-11-17T11:46:15.189Z,19.36
2022-11-17T11:48:41.979Z,19.53
2022-11-17T11:51:08.699Z,20.39
2022-11-17T11:53:35.484Z,20.90
2022-11-17T11:56:02.251Z,21.18
2022-11-17T11:58:29.047Z,21.23
2022-11-17T12:00:55.821Z,21.23
2022-11-17T12:03:22.650Z,21.40
2022-11-17T12:05:49.452Z,21.53
2022-11-17T12:08:16.170Z,21.61
2022-11-17T12:10:42.907Z,21.68
2022-11-17T12:13:09.630Z,21.83
2022-11-17T12:15:36.515Z,21.44
2022-11-17T12:18:03.908Z,18.37
2022-11-17T12:20:30.690Z,17.99
2022-11-17T12:22:57.447Z,19.30
2022-11-17T12:25:24.231Z,19.58
2022-11-17T12:27:51.013Z,20.51
2022-11-17T12:30:17.741Z,20.85
2022-11-17T12:32:44.510Z,21.03
2022-11-17T12:35:11.255Z,21.36
2022-11-17T12:37:38.726Z,21.24
2022-11-17T12:40:05.528Z,21.39
2022-11-17T12:42:32.316Z,21.46
2022-11-17T12:44:59.171Z,21.54
2022-11-17T12:47:26.048Z,21.72
2022-11-17T12:49:52.803Z,21.81
2022-11-17T12:52:19.548Z,21.92
2022-11-17T12:54:46.282Z,19.76
2022-11-17T12:57:13.021Z,18.43
2022-11-17T12:59:40.036Z,19.38
2022-11-17T13:02:06.785Z,20.71
2022-11-17T13:04:33.505Z,21.10
2022-11-17T13:07:00.948Z,21.40
2022-11-17T13:09:27.791Z,21.42
2022-11-17T13:11:54.521Z,21.58
2022-11-17T13:14:21.240Z,21.51
2022-11-17T13:16:48.033Z,21.69
2022-11-17T13:19:14.904Z,21.71
2022-11-17T13:21:41.618Z,21.92
2022-11-17T13:24:08.362Z,19.92
2022-11-17T13:26:38.217Z,18.40
2022-11-17T13:29:05.170Z,19.31
2022-11-17T13:31:31.923Z,20.58
2022-11-17T13:33:58.637Z,20.89
2022-11-17T13:36:27.087Z,20.98
2022-11-17T13:38:54.655Z,21.18
2022-11-17T13:41:21.510Z,21.42
2022-11-17T13:43:48.703Z,21.54
2022-11-17T13:46:15.452Z,21.65
2022-11-17T13:48:42.241Z,21.78
2022-11-17T13:51:08.995Z,21.81
2022-11-17T13:53:35.745Z,20.84
2022-11-17T13:56:02.571Z,18.24
2022-11-17T13:58:29.415Z,18.48
2022-11-17T14:00:57.451Z,19.56
2022-11-17T14:03:24.251Z,19.99
2022-11-17T14:05:50.984Z,20.70
2022-11-17T14:08:17.727Z,21.02
2022-11-17T14:10:45.673Z,21.08
2022-11-17T14:13:12.411Z,21.21
2022-11-17T14:15:39.140Z,21.39
2022-11-17T14:18:05.875Z,21.46
2022-11-17T14:20:32.609Z,21.64
2022-11-17T14:22:59.363Z,21.66
2022-11-17T14:25:26.113Z,21.79
2022-11-17T14:27:53.469Z,21.81
2022-11-17T14:30:20.304Z,20.79
2022-11-17T14:32:47.114Z,18.02
2022-11-17T14:35:14.423Z,18.04
2022-11-17T14:37:41.542Z,19.54
2022-11-17T14:40:08.263Z,20.06
2022-11-17T14:42:36.361Z,20.79
2022-11-17T14:45:03.346Z,21.10
2022-11-17T14:47:30.082Z,21.28
2022-11-17T14:49:56.818Z,21.21
2022-11-17T14:52:23.550Z,21.38
2022-11-17T14:54:50.284Z,21.42
2022-11-17T14:57:17.018Z,21.63
2022-11-17T14:59:43.767Z,21.67
2022-11-17T15:02:10.529Z,21.83
2022-11-17T15:04:50.641Z,19.87
2022-11-17T15:07:18.183Z,18.13
2022-11-17T15:09:44.974Z,19.26
2022-11-17T15:12:11.698Z,20.40
2022-11-17T15:14:38.439Z,20.89
2022-11-17T15:17:09.871Z,21.09
2022-11-17T15:19:40.010Z,21.15
2022-11-17T15:22:06.736Z,21.31
2022-11-17T15:24:33.461Z,21.40
2022-11-17T15:27:00.233Z,21.63
2022-11-17T15:29:26.950Z,21.62
2022-11-17T15:31:53.824Z,21.76
2022-11-17T15:34:20.807Z,21.79
2022-11-17T15:36:47.692Z,19.08
2022-11-17T15:39:14.729Z,18.50
2022-11-17T15:41:41.810Z,19.49
2022-11-17T15:44:08.576Z,19.70
2022-11-17T15:46:35.295Z,20.50
2022-11-17T15:49:02.077Z,20.91
2022-11-17T15:51:28.864Z,21.13
2022-11-17T15:53:56.216Z,21.37
2022-11-17T15:56:23.139Z,21.38
2022-11-17T15:58:49.875Z,21.49
2022-11-17T16:01:16.653Z,21.48
2022-11-17T16:03:43.415Z,21.54
2022-11-17T16:06:10.203Z,21.68
2022-11-17T16:08:36.950Z,21.90
2022-11-17T16:11:03.701Z,19.11
2022-11-17T16:13:30.488Z,18.30
2022-11-17T16:15:57.220Z,19.39
2022-11-17T16:18:24.051Z,19.97
2022-11-17T16:20:50.897Z,20.70
2022-11-17T16:23:17.738Z,21.10
2022-11-17T16:25:44.568Z,21.30
2022-11-17T16:28:11.459Z,21.50
2022-11-17T16:30:38.417Z,21.59
2022-11-17T16:33:05.195Z,21.65
2022-11-17T16:35:31.982Z,21.62
2022-11-17T16:37:58.755Z,21.75
2022-11-17T16:40:25.638Z,21.78
2022-11-17T16:42:52.360Z,21.44
2022-11-17T16:45:19.092Z,18.35
2022-11-17T16:47:45.836Z,18.50
2022-11-17T16:50:12.562Z,19.85
2022-11-17T16:52:39.334Z,20.67
2022-11-17T16:55:06.227Z,21.13
2022-11-17T16:57:33.044Z,21.10
2022-11-17T16:59:59.800Z,21.17
2022-11-17T17:02:27.158Z,21.33
2022-11-17T17:04:53.965Z,21.62
2022-11-17T17:07:20.773Z,21.68
2022-11-17T17:09:47.525Z,21.78
2022-11-17T17:12:14.249Z,21.64
2022-11-17T17:14:40.973Z,18.90
2022-11-17T17:17:07.750Z,18.53
2022-11-17T17:19:34.483Z,19.87
2022-11-17T17:22:01.571Z,20.62
2022-11-17T17:24:28.576Z,21.01
2022-11-17T17:26:55.297Z,21.35
2022-11-17T17:29:22.035Z,21.31
2022-11-17T17:31:48.779Z,21.42
2022-11-17T17:34:15.502Z,21.52
2022-11-17T17:36:42.395Z,21.54
2022-11-17T17:39:09.192Z,21.72
2022-11-17T17:41:35.911Z,21.87
2022-11-17T17:44:02.769Z,19.61
2022-11-17T17:46:29.765Z,17.54
2022-11-17T17:48:56.651Z,18.35
2022-11-17T17:51:26.235Z,19.30
2022-11-17T17:53:53.132Z,20.20
2022-11-17T17:56:19.857Z,20.62
2022-11-17T17:58:48.541Z,21.07
2022-11-17T18:01:15.391Z,21.07
2022-11-17T18:03:48.195Z,21.28
2022-11-17T18:06:14.927Z,21.39
2022-11-17T18:08:41.686Z,21.33
2022-11-17T18:11:08.467Z,21.47
2022-11-17T18:13:35.219Z,21.61
2022-11-17T18:16:01.957Z,21.69
2022-11-17T18:18:29.028Z,21.72
2022-11-17T18:20:55.761Z,21.84
2022-11-17T18:23:22.992Z,19.50
2022-11-17T18:25:49.711Z,18.70
2022-11-17T18:28:16.441Z,19.45
2022-11-17T18:30:43.189Z,19.97
2022-11-17T18:33:09.967Z,20.67
2022-11-17T18:35:36.707Z,20.92
2022-11-17T18:38:03.443Z,21.10
2022-11-17T18:40:30.933Z,21.22
2022-11-17T18:43:01.271Z,21.33
2022-11-17T18:45:28.019Z,21.49
2022-11-17T18:47:54.735Z,21.73
2022-11-17T18:50:22.237Z,21.66
2022-11-17T18:52:49.375Z,21.74
2022-11-17T18:55:16.237Z,21.78
2022-11-17T18:57:45.003Z,19.26
2022-11-17T19:00:12.000Z,18.21
2022-11-17T19:02:38.729Z,19.61
2022-11-17T19:05:05.676Z,20.46
2022-11-17T19:07:32.554Z,21.22
2022-11-17T19:09:59.585Z,21.22
2022-11-17T19:12:26.333Z,21.36
2022-11-17T19:14:53.073Z,21.51
2022-11-17T19:17:19.822Z,21.48
2022-11-17T19:19:46.563Z,21.69
2022-11-17T19:22:13.317Z,21.79
2022-11-17T19:24:40.664Z,21.80
2022-11-17T19:27:08.176Z,21.87
2022-11-17T19:29:35.136Z,19.61
2022-11-17T19:32:01.877Z,17.90
2022-11-17T19:34:28.633Z,19.04
2022-11-17T19:36:55.454Z,20.43
2022-11-17T19:39:22.201Z,20.85
2022-11-17T19:41:48.936Z,21.03
2022-11-17T19:44:15.834Z,21.17
2022-11-17T19:46:43.095Z,21.32
2022-11-17T19:49:09.855Z,21.56
2022-11-17T19:51:36.817Z,21.60
2022-11-17T19:54:03.603Z,21.75
2022-11-17T19:56:30.333Z,21.85
2022-11-17T19:58:57.108Z,21.03
2022-11-17T20:01:23.907Z,18.12
2022-11-17T20:03:50.713Z,18.13
2022-11-17T20:06:17.469Z,19.89
2022-11-17T20:08:44.208Z,20.80
2022-11-17T20:11:11.065Z,21.09
2022-11-17T20:13:37.913Z,21.26
2022-11-17T20:16:08.912Z,21.29
2022-11-17T20:18:38.393Z,21.31
2022-11-17T20:21:05.368Z,21.48
2022-11-17T20:23:32.160Z,21.61
2022-11-17T20:25:59.064Z,21.77
2022-11-17T20:28:25.825Z,21.87
2022-11-17T20:30:52.641Z,21.46
2022-11-17T20:33:19.404Z,18.42
2022-11-17T20:35:46.141Z,17.07
2022-11-17T20:38:15.691Z,18.60
2022-11-17T20:40:42.700Z,20.06
2022-11-17T20:43:09.415Z,20.72
2022-11-17T20:45:36.140Z,20.91
2022-11-17T20:48:02.885Z,21.09
2022-11-17T20:50:29.646Z,21.29
2022-11-17T20:52:56.398Z,21.32
2022-11-17T20:55:23.856Z,21.29
2022-11-17T20:57:50.630Z,21.36
2022-11-17T21:00:17.375Z,21.53
2022-11-17T21:02:44.133Z,21.64
2022-11-17T21:05:10.880Z,21.72
2022-11-17T21:07:37.659Z,21.82
2022-11-17T21:10:04.455Z,20.93
2022-11-17T21:12:31.186Z,18.05
2022-11-17T21:14:57.922Z,17.13
2022-11-17T21:17:43.346Z,19.13
2022-11-17T21:20:10.101Z,20.23
2022-11-17T21:22:36.824Z,20.71
2022-11-17T21:25:03.557Z,20.98
2022-11-17T21:27:30.275Z,21.21
2022-11-17T21:29:56.987Z,21.32
2022-11-17T21:32:23.766Z,21.26
2022-11-17T21:34:50.580Z,21.61
2022-11-17T21:37:17.387Z,21.59
2022-11-17T21:39:44.164Z,21.62
2022-11-17T21:42:10.884Z,21.70
2022-11-17T21:44:37.622Z,21.62
2022-11-17T21:47:04.360Z,21.68
2022-11-17T21:49:31.088Z,18.71
2022-11-17T21:51:57.829Z,17.54
2022-11-17T21:54:24.569Z,18.91
2022-11-17T21:56:51.827Z,20.27
2022-11-17T21:59:19.051Z,20.67
2022-11-17T22:01:45.977Z,20.97
2022-11-17T22:04:13.156Z,20.98
2022-11-17T22:06:39.947Z,21.23
2022-11-17T22:09:06.812Z,21.35
2022-11-17T22:11:37.180Z,21.36
2022-11-17T22:14:04.345Z,21.44
2022-11-17T22:16:31.247Z,21.53
2022-11-17T22:18:57.974Z,21.68
2022-11-17T22:21:24.742Z,21.72
2022-11-17T22:23:51.496Z,21.95
2022-11-17T22:26:18.261Z,19.35
2022-11-17T22:28:44.979Z,17.52
2022-11-17T22:31:11.748Z,18.52
2022-11-17T22:33:39.908Z,20.05
2022-11-17T22:36:06.728Z,20.74
2022-11-17T22:38:33.521Z,20.95
2022-11-17T22:41:00.384Z,21.11
2022-11-17T22:43:27.133Z,21.16
2022-11-17T22:45:53.919Z,21.29
2022-11-17T22:48:20.653Z,21.48
2022-11-17T22:50:47.402Z,21.57
2022-11-17T22:53:14.146Z,21.59
2022-11-17T22:55:40.880Z,21.73
2022-11-17T22:58:07.671Z,21.75
2022-11-17T23:00:34.402Z,21.81
2022-11-17T23:03:01.249Z,19.24
2022-11-17T23:05:28.011Z,17.61
2022-11-17T23:07:54.761Z,18.82
2022-11-17T23:10:21.552Z,20.29
2022-11-17T23:12:48.269Z,20.86
2022-11-17T23:15:15.015Z,20.88
2022-11-17T23:17:42.676Z,21.07
2022-11-17T23:20:09.396Z,21.19
2022-11-17T23:22:36.196Z,21.41
2022-11-17T23:25:03.000Z,21.48
2022-11-17T23:27:29.736Z,21.58
2022-11-17T23:29:56.505Z,21.66
2022-11-17T23:32:23.225Z,21.74
2022-11-17T23:34:49.959Z,21.80
2022-11-17T23:37:16.768Z,20.66
2022-11-17T23:39:43.559Z,17.93
2022-11-17T23:42:10.306Z,17.92
2022-11-17T23:44:37.105Z,19.61
2022-11-17T23:47:03.824Z,20.49
2022-11-17T23:49:30.598Z,20.82
2022-11-17T23:51:57.471Z,21.09
2022-11-17T23:54:24.232Z,21.18
2022-11-17T23:56:52.976Z,21.31
2022-11-17T23:59:20.381Z,21.42
